Time;durP1;ratioP1;P1;durP2;ratioP2;P2;SDS_P1;SDS_P2;PMS_P1;PMS_P2;Temp;Humidity;BMP_temperature;BMP_pressure;BME280_temperature;BME280_humidity;BME280_pressure;Samples;Min_cycle;Max_cycle;Signal;HPM_P1;HPM_P2
2023/12/23 00:01:53;;;;;;;;;;;;;;;17.56;60.86;99230.25;7394606;19;1504;-41
2023/12/23 00:04:21;;;;;;;;;;;;;;;17.85;60.40;99225.34;7380859;19;1490;-40
2023/12/23 00:06:50;;;;;;;;;;;;;;;18.11;59.60;99245.75;7394872;19;1586;-40
2023/12/23 00:09:18;;;;;;;;;;;;;;;18.23;59.25;99241.72;7392549;19;1879;-40
2023/12/23 00:11:46;;;;;;;;;;;;;;;18.20;59.51;99250.06;7393342;19;1488;-40
2023/12/23 00:14:14;;;;;;;;;;;;;;;18.21;59.27;99253.59;7395047;19;1206;-41
2023/12/23 00:16:43;;;;;;;;;;;;;;;18.23;59.21;99240.91;7393282;19;1609;-41
2023/12/23 00:19:14;;;;;;;;;;;;;;;18.08;59.74;99262.97;7394203;19;1430;-41
2023/12/23 00:21:42;;;;;;;;;;;;;;;17.78;60.30;99245.66;7392873;19;1385;-41
2023/12/23 00:24:10;;;;;;;;;;;;;;;17.60;60.65;99242.28;7393095;19;1536;-41
2023/12/23 00:26:38;;;;;;;;;;;;;;;17.44;61.00;99241.25;7393687;19;1543;-41
2023/12/23 00:29:07;;;;;;;;;;;;;;;17.38;61.06;99244.56;7392954;19;1873;-41
2023/12/23 00:31:36;;;;;;;;;;;;;;;17.37;61.22;99264.28;7394453;19;1496;-41
2023/12/23 00:34:04;;;;;;;;;;;;;;;17.46;61.28;99257.94;7394305;19;1850;-41
2023/12/23 00:36:35;;;;;;;;;;;;;;;17.61;60.89;99254.66;7393374;19;1487;-41
2023/12/23 00:39:04;;;;;;;;;;;;;;;17.83;60.50;99232.69;7392772;19;1338;-41
2023/12/23 00:41:32;;;;;;;;;;;;;;;18.13;59.84;99262.47;7392356;19;1392;-41
2023/12/23 00:44:01;;;;;;;;;;;;;;;18.16;59.46;99254.09;7390960;19;2529;-41
2023/12/23 00:46:29;;;;;;;;;;;;;;;18.16;59.63;99254.09;7392569;19;1405;-41
2023/12/23 00:48:57;;;;;;;;;;;;;;;18.20;59.43;99254.59;7393474;19;1548;-41
2023/12/23 00:51:26;;;;;;;;;;;;;;;18.20;59.41;99228.66;7390885;19;1849;-41
2023/12/23 00:53:56;;;;;;;;;;;;;;;17.94;60.05;99236.03;7393276;19;1422;-41
2023/12/23 00:56:25;;;;;;;;;;;;;;;17.70;60.57;99221.59;7392761;19;1398;-41
2023/12/23 00:58:53;;;;;;;;;;;;;;;17.54;61.17;99226.91;7392183;19;1495;-41
2023/12/23 01:01:22;;;;;;;;;;;;;;;17.47;61.28;99246.28;7391148;19;1602;-41
2023/12/23 01:03:50;;;;;;;;;;;;;;;17.38;61.23;99233.03;7393337;19;1297;-41
2023/12/23 01:06:18;;;;;;;;;;;;;;;17.30;61.38;99247.22;7390537;19;1663;-41
2023/12/23 01:08:47;;;;;;;;;;;;;;;17.53;61.06;99259.97;7392682;19;1582;-41
2023/12/23 01:11:19;;;;;;;;;;;;;;;17.73;60.76;99257.88;7391239;19;1857;-40
2023/12/23 01:13:47;;;;;;;;;;;;;;;17.99;60.43;99261.28;7391563;19;1586;-40
2023/12/23 01:16:16;;;;;;;;;;;;;;;18.14;59.75;99250.75;7391859;19;1551;-39
2023/12/23 01:18:44;;;;;;;;;;;;;;;18.17;59.83;99249.59;7391048;19;1422;-40
2023/12/23 01:21:12;;;;;;;;;;;;;;;18.10;59.89;99233.34;7393540;19;1389;-40
2023/12/23 01:23:41;;;;;;;;;;;;;;;17.81;60.51;99240.00;7391955;19;1381;-40
2023/12/23 01:26:09;;;;;;;;;;;;;;;17.62;61.11;99226.94;7391496;19;1543;-39
2023/12/23 01:28:40;;;;;;;;;;;;;;;17.46;61.23;99215.19;7390490;19;1613;-39
2023/12/23 01:31:08;;;;;;;;;;;;;;;17.37;61.54;99213.50;7390325;19;1866;-40
2023/12/23 01:33:37;;;;;;;;;;;;;;;17.35;61.25;99206.63;7391713;19;1390;-39
2023/12/23 01:36:05;;;;;;;;;;;;;;;17.31;61.53;99222.19;7391681;19;1485;-40
2023/12/23 01:38:34;;;;;;;;;;;;;;;17.53;61.24;99211.84;7390800;19;1616;-39
2023/12/23 01:41:03;;;;;;;;;;;;;;;17.82;60.90;99204.22;7390464;19;1602;-40
2023/12/23 01:43:31;;;;;;;;;;;;;;;18.06;60.25;99206.13;7391336;19;1579;-39
2023/12/23 01:46:02;;;;;;;;;;;;;;;17.84;60.72;99174.69;7391011;19;1417;-39
2023/12/23 01:48:34;;;;;;;;;;;;;;;17.65;61.14;99181.16;7390443;19;1504;-40
2023/12/23 01:51:02;;;;;;;;;;;;;;;17.50;61.29;99163.09;7389100;19;1842;-39
2023/12/23 01:53:31;;;;;;;;;;;;;;;17.39;61.79;99191.94;7391369;19;1446;-39
2023/12/23 01:55:59;;;;;;;;;;;;;;;17.31;61.65;99179.44;7392146;19;1388;-40
2023/12/23 01:58:29;;;;;;;;;;;;;;;17.29;61.90;99192.94;7392261;19;1439;-39
2023/12/23 02:00:57;;;;;;;;;;;;;;;17.46;61.58;99179.63;7391275;19;1531;-39
2023/12/23 02:03:28;;;;;;;;;;;;;;;17.67;61.46;99187.19;7390685;19;1613;-39
2023/12/23 02:05:57;;;;;;;;;;;;;;;17.98;60.52;99192.72;7390570;19;1615;-39
2023/12/23 02:08:25;;;;;;;;;;;;;;;18.13;60.05;99166.16;7390182;19;1587;-39
2023/12/23 02:11:00;;;;;;;;;;;;;;;18.18;59.93;99182.53;7390289;19;1865;-39
2023/12/23 02:13:30;;;;;;;;;;;;;;;18.02;60.08;99179.88;7390541;19;1527;-39
2023/12/23 02:15:59;;;;;;;;;;;;;;;17.72;61.08;99186.69;7390536;19;1508;-39
2023/12/23 02:18:30;;;;;;;;;;;;;;;17.56;61.44;99195.50;7397088;19;1501;-40
2023/12/23 02:21:01;;;;;;;;;;;;;;;17.41;61.41;99180.13;7398111;19;1249;-39
2023/12/23 02:23:29;;;;;;;;;;;;;;;17.33;61.55;99176.56;7397845;19;1940;-40
2023/12/23 02:26:00;;;;;;;;;;;;;;;17.32;61.83;99159.72;7398080;19;1680;-39
2023/12/23 02:28:29;;;;;;;;;;;;;;;17.43;61.63;99166.59;7397992;19;1612;-41
2023/12/23 02:31:00;;;;;;;;;;;;;;;17.77;61.18;99139.72;7395976;19;1846;-41
2023/12/23 02:33:28;;;;;;;;;;;;;;;18.66;58.91;99134.41;7396603;19;1650;-41
2023/12/23 02:35:56;;;;;;;;;;;;;;;18.99;57.98;99127.09;7398125;19;1547;-41
2023/12/23 02:38:27;;;;;;;;;;;;;;;19.20;57.66;99118.44;7397771;19;1258;-41
2023/12/23 02:40:56;;;;;;;;;;;;;;;19.25;57.50;99137.50;7397539;19;1370;-41
2023/12/23 02:43:24;;;;;;;;;;;;;;;19.32;57.16;99136.78;7397355;19;1454;-41
2023/12/23 02:45:52;;;;;;;;;;;;;;;19.36;57.25;99133.59;7397773;19;1598;-41
2023/12/23 02:48:20;;;;;;;;;;;;;;;19.35;57.35;99145.31;7396686;19;1391;-39
2023/12/23 02:50:49;;;;;;;;;;;;;;;19.46;57.14;99157.50;7395536;19;1850;-40
2023/12/23 02:53:17;;;;;;;;;;;;;;;19.44;57.01;99152.31;7398507;19;1471;-40
2023/12/23 02:55:48;;;;;;;;;;;;;;;19.47;57.12;99157.28;7396841;19;1893;-39
2023/12/23 02:58:16;;;;;;;;;;;;;;;19.54;56.83;99156.59;7397097;19;1811;-39
2023/12/23 03:00:45;;;;;;;;;;;;;;;19.50;57.08;99166.00;7396030;19;1594;-40
2023/12/23 03:03:13;;;;;;;;;;;;;;;19.52;57.12;99143.38;7396812;19;1723;-39
2023/12/23 03:05:41;;;;;;;;;;;;;;;19.55;57.13;99156.41;7396384;19;1582;-39
2023/12/23 03:08:09;;;;;;;;;;;;;;;19.48;57.26;99158.97;7395595;19;1486;-39
2023/12/23 03:10:38;;;;;;;;;;;;;;;19.50;57.03;99156.13;7395040;19;1874;-40
2023/12/23 03:13:09;;;;;;;;;;;;;;;19.54;57.23;99164.66;7398013;19;1179;-40
2023/12/23 03:15:37;;;;;;;;;;;;;;;19.58;56.95;99157.91;7395685;19;1801;-40
2023/12/23 03:18:06;;;;;;;;;;;;;;;19.65;56.90;99154.31;7396165;19;1850;-40
2023/12/23 03:20:34;;;;;;;;;;;;;;;19.66;57.00;99144.44;7395295;19;1499;-40
2023/12/23 03:23:03;;;;;;;;;;;;;;;19.80;56.58;99140.19;7395610;19;1841;-40
2023/12/23 03:25:31;;;;;;;;;;;;;;;19.82;56.64;99143.50;7392893;19;1956;-40
2023/12/23 03:28:00;;;;;;;;;;;;;;;19.67;56.83;99127.31;7393307;19;2123;-40
2023/12/23 03:30:31;;;;;;;;;;;;;;;19.69;56.93;99122.63;7394029;19;1861;-40
2023/12/23 03:32:59;;;;;;;;;;;;;;;19.66;56.84;99117.63;7395019;19;1544;-40
2023/12/23 03:35:28;;;;;;;;;;;;;;;19.70;56.85;99145.75;7394712;19;1528;-40
2023/12/23 03:37:56;;;;;;;;;;;;;;;19.82;56.51;99162.28;7395223;19;1520;-40
2023/12/23 03:40:24;;;;;;;;;;;;;;;19.88;56.42;99185.72;7394274;19;1520;-40
2023/12/23 03:42:53;;;;;;;;;;;;;;;19.81;56.71;99188.25;7394974;19;1516;-40
2023/12/23 03:45:21;;;;;;;;;;;;;;;19.84;56.70;99179.03;7395998;19;1463;-40
2023/12/23 03:47:52;;;;;;;;;;;;;;;19.83;56.54;99172.81;7395975;19;1463;-40
2023/12/23 03:50:20;;;;;;;;;;;;;;;19.76;56.74;99179.94;7393530;19;1861;-40
2023/12/23 03:52:49;;;;;;;;;;;;;;;19.83;56.51;99167.44;7394237;19;1574;-40
2023/12/23 03:55:17;;;;;;;;;;;;;;;19.81;56.66;99147.19;7394880;19;1396;-40
2023/12/23 03:57:45;;;;;;;;;;;;;;;19.88;56.61;99113.28;7393760;19;1714;-40
2023/12/23 04:00:14;;;;;;;;;;;;;;;19.67;57.19;99108.56;7391518;19;1529;-41
2023/12/23 04:02:43;;;;;;;;;;;;;;;19.05;58.54;99094.25;7393736;19;1511;-41
2023/12/23 04:05:14;;;;;;;;;;;;;;;18.68;59.55;99089.53;7393206;19;1574;-41
2023/12/23 04:07:42;;;;;;;;;;;;;;;18.39;60.06;99090.19;7394318;19;1596;-41
2023/12/23 04:10:10;;;;;;;;;;;;;;;18.22;60.33;99132.19;7393454;19;1449;-42
2023/12/23 04:12:40;;;;;;;;;;;;;;;18.36;60.39;99114.59;7391542;19;1857;-41
2023/12/23 04:15:08;;;;;;;;;;;;;;;18.52;59.92;99094.97;7393586;19;1257;-40
2023/12/23 04:17:38;;;;;;;;;;;;;;;18.65;59.83;99073.84;7392892;19;1516;-42
2023/12/23 04:20:07;;;;;;;;;;;;;;;18.40;60.02;99040.97;7393074;19;1537;-40
2023/12/23 04:22:39;;;;;;;;;;;;;;;18.22;60.53;99009.13;7392318;19;1478;-41
2023/12/23 04:25:07;;;;;;;;;;;;;;;18.34;60.43;99041.69;7393177;19;1391;-41
2023/12/23 04:27:36;;;;;;;;;;;;;;;18.44;60.60;99037.81;7389880;19;1258;-41
2023/12/23 04:30:04;;;;;;;;;;;;;;;18.52;60.56;99060.19;7392245;19;1447;-42
2023/12/23 04:32:33;;;;;;;;;;;;;;;18.35;61.04;99075.47;7390059;19;1845;-41
2023/12/23 04:35:03;;;;;;;;;;;;;;;18.16;61.22;99100.75;7390374;19;1406;-41
2023/12/23 04:37:31;;;;;;;;;;;;;;;18.08;61.48;99105.16;7392261;19;1246;-41
2023/12/23 04:40:02;;;;;;;;;;;;;;;18.21;61.05;99111.81;7391206;19;1297;-41
2023/12/23 04:42:30;;;;;;;;;;;;;;;18.31;61.24;99083.00;7392384;19;1305;-41
2023/12/23 04:44:59;;;;;;;;;;;;;;;18.47;60.81;99095.50;7391537;19;1438;-41
2023/12/23 04:47:27;;;;;;;;;;;;;;;18.73;60.14;99099.75;7390628;19;1341;-41
2023/12/23 04:49:55;;;;;;;;;;;;;;;18.74;60.04;99106.75;7390679;19;1671;-39
2023/12/23 04:52:24;;;;;;;;;;;;;;;18.75;59.99;99090.53;7390360;19;1843;-40
2023/12/23 04:54:52;;;;;;;;;;;;;;;18.76;60.04;99084.19;7389100;19;1526;-40
2023/12/23 04:57:23;;;;;;;;;;;;;;;18.76;60.07;99094.03;7390907;19;1505;-39
2023/12/23 04:59:51;;;;;;;;;;;;;;;18.69;60.11;99073.31;7391541;19;1488;-39
2023/12/23 05:02:19;;;;;;;;;;;;;;;18.72;60.09;99079.31;7391649;19;1536;-39
2023/12/23 05:04:48;;;;;;;;;;;;;;;18.71;60.29;99091.06;7391361;19;1509;-39
2023/12/23 05:07:16;;;;;;;;;;;;;;;18.71;60.18;99075.00;7391835;19;1258;-40
2023/12/23 05:09:44;;;;;;;;;;;;;;;18.72;60.26;99073.97;7391228;19;1491;-39
2023/12/23 05:12:13;;;;;;;;;;;;;;;18.76;60.15;99061.91;7390059;19;1867;-40
2023/12/23 05:14:44;;;;;;;;;;;;;;;18.74;60.06;99070.13;7390913;19;1476;-40
2023/12/23 05:17:12;;;;;;;;;;;;;;;18.88;59.94;99090.00;7385984;19;1410;-39
2023/12/23 05:19:42;;;;;;;;;;;;;;;18.91;59.66;99084.28;7389025;19;1515;-39
2023/12/23 05:22:10;;;;;;;;;;;;;;;18.92;59.80;99094.00;7387782;19;1444;-39
2023/12/23 05:24:39;;;;;;;;;;;;;;;18.94;59.55;99097.34;7385931;19;1477;-39
2023/12/23 05:27:07;;;;;;;;;;;;;;;19.11;59.22;99108.78;7391267;19;1459;-39
2023/12/23 05:29:35;;;;;;;;;;;;;;;19.14;59.09;99107.59;7389509;19;1503;-40
2023/12/23 05:32:07;;;;;;;;;;;;;;;19.07;59.34;99126.22;7389582;19;1851;-40
2023/12/23 05:34:36;;;;;;;;;;;;;;;18.95;59.50;99103.53;7389908;19;1233;-42
2023/12/23 05:37:02;;;;;;;;;;;;;;;19.00;59.41;99111.84;7388636;19;1492;-40
2023/12/23 05:39:30;;;;;;;;;;;;;;;18.95;59.49;99103.53;7388455;19;1446;-40
2023/12/23 05:41:58;;;;;;;;;;;;;;;19.05;59.40;99099.59;7389107;19;1442;-39
2023/12/23 05:44:27;;;;;;;;;;;;;;;19.17;58.93;99094.69;7389711;19;1439;-41
2023/12/23 05:46:55;;;;;;;;;;;;;;;19.03;59.18;99096.25;7388687;19;1578;-39
2023/12/23 05:49:26;;;;;;;;;;;;;;;18.97;59.38;99086.25;7387730;19;1586;-41
2023/12/23 05:51:54;;;;;;;;;;;;;;;19.11;59.21;99092.72;7389330;19;1851;-41
2023/12/23 05:54:23;;;;;;;;;;;;;;;19.03;59.41;99090.09;7389569;19;1555;-41
2023/12/23 05:56:51;;;;;;;;;;;;;;;18.94;59.83;99080.41;7389603;19;1602;-41
2023/12/23 05:59:19;;;;;;;;;;;;;;;18.81;59.96;99072.97;7389634;19;1494;-41
2023/12/23 06:01:48;;;;;;;;;;;;;;;18.80;60.03;99057.88;7390003;19;1500;-41
2023/12/23 06:04:16;;;;;;;;;;;;;;;18.87;60.16;99056.19;7389227;19;1662;-41
2023/12/23 06:06:47;;;;;;;;;;;;;;;18.93;59.99;99049.31;7386838;19;1441;-41
2023/12/23 06:09:15;;;;;;;;;;;;;;;18.99;59.81;99051.25;7388021;19;1480;-41
2023/12/23 06:11:43;;;;;;;;;;;;;;;19.00;59.97;99059.13;7387475;19;1855;-41
2023/12/23 06:14:13;;;;;;;;;;;;;;;19.15;59.22;99051.16;7388238;19;1388;-41
2023/12/23 06:16:39;;;;;;;;;;;;;;;18.99;59.51;99038.69;7388301;19;1548;-46
2023/12/23 06:19:07;;;;;;;;;;;;;;;19.03;59.38;99037.31;7388599;19;1274;-42
2023/12/23 06:21:35;;;;;;;;;;;;;;;18.95;59.83;99028.53;7389170;19;1500;-41
2023/12/23 06:24:07;;;;;;;;;;;;;;;18.96;59.90;99035.53;7386524;19;1602;-41
2023/12/23 06:26:36;;;;;;;;;;;;;;;19.00;59.65;99051.09;7386525;19;1235;-42
2023/12/23 06:29:04;;;;;;;;;;;;;;;18.98;59.87;99053.13;7387757;19;1404;-41
2023/12/23 06:31:32;;;;;;;;;;;;;;;19.02;59.60;99045.53;7387964;19;1860;-41
2023/12/23 06:34:01;;;;;;;;;;;;;;;19.02;59.90;99056.25;7389419;19;1464;-41
2023/12/23 06:36:29;;;;;;;;;;;;;;;18.96;59.90;99047.09;7386388;19;1589;-40
2023/12/23 06:38:57;;;;;;;;;;;;;;;19.18;59.14;99029.38;7385883;19;1596;-40
2023/12/23 06:41:28;;;;;;;;;;;;;;;19.45;58.54;99019.91;7386415;19;1725;-40
2023/12/23 06:43:56;;;;;;;;;;;;;;;19.58;58.48;99034.56;7385706;19;1738;-40
2023/12/23 06:46:25;;;;;;;;;;;;;;;19.78;58.50;99024.19;7387985;19;1663;-40
2023/12/23 06:48:54;;;;;;;;;;;;;;;19.54;59.10;99035.97;7386735;19;1702;-40
2023/12/23 06:51:22;;;;;;;;;;;;;;;19.32;59.79;99025.06;7385887;19;1902;-41
2023/12/23 06:53:51;;;;;;;;;;;;;;;19.18;60.08;99018.66;7387820;19;1777;-41
2023/12/23 06:56:21;;;;;;;;;;;;;;;19.16;59.93;99003.75;7387565;19;1893;-40
2023/12/23 06:58:52;;;;;;;;;;;;;;;19.04;59.87;99006.88;7370394;19;1678;-41
2023/12/23 07:01:20;;;;;;;;;;;;;;;19.14;59.78;99016.50;7381398;19;2112;-41
2023/12/23 07:03:48;;;;;;;;;;;;;;;19.05;59.44;98980.91;7387909;19;1777;-46
2023/12/23 07:06:17;;;;;;;;;;;;;;;19.38;59.46;99013.63;7393227;19;1540;-44
2023/12/23 07:08:45;;;;;;;;;;;;;;;19.43;59.34;99026.47;7393780;19;1746;-40
2023/12/23 07:11:13;;;;;;;;;;;;;;;19.41;59.38;99007.06;7394022;19;1623;-41
2023/12/23 07:13:41;;;;;;;;;;;;;;;19.37;58.86;99001.22;7383653;19;1836;-40
2023/12/23 07:16:12;;;;;;;;;;;;;;;19.38;58.17;99005.59;7394015;19;1389;-40
2023/12/23 07:18:41;;;;;;;;;;;;;;;19.59;57.97;99029.00;7391819;19;1622;-40
2023/12/23 07:21:09;;;;;;;;;;;;;;;19.93;57.07;99040.28;7386301;19;1325;-40
2023/12/23 07:23:37;;;;;;;;;;;;;;;19.89;56.92;99030.94;7392013;19;1500;-40
2023/12/23 07:26:06;;;;;;;;;;;;;;;19.81;57.08;99067.56;7389557;19;1842;-40
2023/12/23 07:28:34;;;;;;;;;;;;;;;19.76;57.44;99083.38;7392247;19;1392;-40
2023/12/23 07:31:02;;;;;;;;;;;;;;;19.95;57.18;99078.50;7392572;19;1317;-40
2023/12/23 07:33:33;;;;;;;;;;;;;;;19.98;58.01;99097.75;7389868;19;1866;-40
2023/12/23 07:36:02;;;;;;;;;;;;;;;19.90;59.21;99087.09;7392155;19;1588;-40
2023/12/23 07:38:30;;;;;;;;;;;;;;;19.79;60.43;99099.09;7390781;19;1659;-40
2023/12/23 07:40:58;;;;;;;;;;;;;;;19.73;61.69;99105.19;7391405;19;1236;-40
2023/12/23 07:43:27;;;;;;;;;;;;;;;19.39;62.89;99103.75;7392807;19;1333;-40
2023/12/23 07:45:55;;;;;;;;;;;;;;;18.90;63.94;99093.34;7391591;19;1651;-40
2023/12/23 07:48:23;;;;;;;;;;;;;;;18.59;64.09;99095.97;7392507;19;1654;-40
2023/12/23 07:50:54;;;;;;;;;;;;;;;18.50;64.55;99089.78;7390854;19;1645;-40
2023/12/23 07:53:23;;;;;;;;;;;;;;;18.54;64.97;99075.03;7393199;19;1854;-40
2023/12/23 07:55:51;;;;;;;;;;;;;;;18.61;65.03;99085.91;7391125;19;1310;-40
2023/12/23 07:58:19;;;;;;;;;;;;;;;18.61;64.89;99102.81;7390655;19;1656;-39
2023/12/23 08:00:47;;;;;;;;;;;;;;;18.79;64.56;99104.41;7390573;19;1759;-40
2023/12/23 08:16:54;;;;;;;;;;;;;;;18.22;66.61;99138.41;7258726;19;3029652;-38
2023/12/23 08:19:22;;;;;;;;;;;;;;;18.48;65.90;99135.50;7422197;19;1311;-39
2023/12/23 08:21:51;;;;;;;;;;;;;;;18.40;66.89;99129.31;7423563;19;1650;-39
2023/12/23 08:24:19;;;;;;;;;;;;;;;18.32;66.87;99140.84;7421234;19;1853;-39
2023/12/23 08:26:47;;;;;;;;;;;;;;;18.66;66.82;99119.19;7416808;19;1661;-39
2023/12/23 08:29:16;;;;;;;;;;;;;;;18.82;66.14;99144.25;7423760;19;1308;-38
2023/12/23 08:31:44;;;;;;;;;;;;;;;18.58;66.89;99185.31;7424265;19;1622;-39
2023/12/23 08:34:15;;;;;;;;;;;;;;;18.35;67.24;99198.56;7424261;19;1399;-39
2023/12/23 08:36:43;;;;;;;;;;;;;;;18.43;67.02;99190.53;7424531;19;1672;-39
2023/12/23 08:39:12;;;;;;;;;;;;;;;18.47;65.77;99191.84;7422150;19;1677;-39
2023/12/23 08:41:40;;;;;;;;;;;;;;;18.25;66.34;99204.09;7423093;19;1581;-39
2023/12/23 08:44:08;;;;;;;;;;;;;;;18.10;66.33;99209.28;7421646;19;1505;-39
2023/12/23 08:46:37;;;;;;;;;;;;;;;18.00;66.25;99206.78;7417006;19;1746;-39
2023/12/23 08:49:05;;;;;;;;;;;;;;;17.86;66.60;99208.25;7415669;19;1311;-39
2023/12/23 08:51:38;;;;;;;;;;;;;;;17.89;66.22;99197.25;7417919;19;1466;-39
2023/12/23 08:54:06;;;;;;;;;;;;;;;18.08;66.09;99220.16;7415817;19;1283;-39
2023/12/23 08:56:34;;;;;;;;;;;;;;;18.11;66.07;99196.75;7418087;19;1767;-39
2023/12/23 08:59:03;;;;;;;;;;;;;;;17.99;65.85;99215.81;7420440;19;1845;-39
2023/12/23 09:01:31;;;;;;;;;;;;;;;17.91;65.91;99209.63;7423179;19;1037;-39
2023/12/23 09:03:59;;;;;;;;;;;;;;;17.82;66.06;99214.91;7424787;19;1936;-39
2023/12/23 09:06:27;;;;;;;;;;;;;;;17.87;65.85;99217.97;7419808;19;1860;-39
2023/12/23 09:08:58;;;;;;;;;;;;;;;18.01;65.64;99218.31;7424007;19;1411;-39
2023/12/23 09:11:27;;;;;;;;;;;;;;;17.99;65.82;99217.66;7420979;19;1778;-39
2023/12/23 09:13:55;;;;;;;;;;;;;;;17.85;65.61;99211.97;7423421;19;1735;-39
2023/12/23 09:16:23;;;;;;;;;;;;;;;17.71;65.87;99201.88;7413038;19;1746;-39
2023/12/23 09:18:52;;;;;;;;;;;;;;;17.65;65.72;99189.19;7395379;19;1474;-39
2023/12/23 09:21:20;;;;;;;;;;;;;;;17.81;65.50;99181.19;7394918;19;1734;-39
2023/12/23 09:23:48;;;;;;;;;;;;;;;17.79;64.77;99156.44;7395219;19;1216;-39
2023/12/23 09:26:20;;;;;;;;;;;;;;;18.33;64.05;99195.25;7394268;19;1835;-39
2023/12/23 09:28:48;;;;;;;;;;;;;;;18.55;63.18;99188.34;7396394;19;1144;-39
2023/12/23 09:31:16;;;;;;;;;;;;;;;18.61;63.07;99187.66;7395278;19;1810;-40
2023/12/23 09:33:44;;;;;;;;;;;;;;;18.26;63.83;99211.97;7394835;19;1800;-39
2023/12/23 09:36:13;;;;;;;;;;;;;;;18.01;64.19;99186.22;7393882;19;1288;-40
2023/12/23 09:38:41;;;;;;;;;;;;;;;17.79;64.82;99207.25;7395236;19;1481;-39
2023/12/23 09:41:09;;;;;;;;;;;;;;;17.72;64.89;99221.44;7394239;19;1332;-39
2023/12/23 09:43:40;;;;;;;;;;;;;;;17.85;64.75;99240.53;7394446;19;1692;-39
2023/12/23 09:46:10;;;;;;;;;;;;;;;18.02;64.18;99236.03;7392230;19;1845;-39
2023/12/23 09:48:38;;;;;;;;;;;;;;;18.08;63.93;99230.00;7393167;19;1750;-39
2023/12/23 09:51:07;;;;;;;;;;;;;;;17.94;64.21;99238.69;7395434;19;1805;-39
2023/12/23 09:53:38;;;;;;;;;;;;;;;17.80;64.61;99245.50;7394079;19;1616;-39
2023/12/23 09:56:07;;;;;;;;;;;;;;;17.68;64.75;99244.97;7393403;19;1763;-39
2023/12/23 09:58:36;;;;;;;;;;;;;;;17.74;64.41;99233.63;7395139;19;1556;-40
2023/12/23 10:01:07;;;;;;;;;;;;;;;17.97;63.96;99238.38;7395282;19;1018;-39
2023/12/23 10:03:35;;;;;;;;;;;;;;;18.27;63.13;99247.59;7395777;19;1016;-39
2023/12/23 11:17:24;;;;;;;;;;;;;;;17.73;62.61;99199.06;6749089;19;10002539;-41
2023/12/23 11:19:52;;;;;;;;;;;;;;;17.56;63.12;99168.78;7419498;19;1474;-36
2023/12/23 11:22:19;;;;;;;;;;;;;;;17.35;62.94;99202.16;7415253;19;1330;-35
2023/12/23 11:24:48;;;;;;;;;;;;;;;17.65;61.65;99198.03;7418759;19;1850;-42
2023/12/23 11:27:30;;;;;;;;;;;;;;;17.95;60.25;99170.84;7417145;19;1742;-40
2023/12/23 11:30:00;;;;;;;;;;;;;;;18.19;59.95;99194.91;7420692;19;1710;-40
2023/12/23 11:32:37;;;;;;;;;;;;;;;18.40;59.34;99190.84;7421172;19;1600;-42
2023/12/23 11:35:11;;;;;;;;;;;;;;;18.21;60.16;99176.84;7426541;19;1461;-35
2023/12/23 11:37:58;;;;;;;;;;;;;;;18.01;60.89;99180.88;7427696;19;1129;-36
2023/12/23 11:40:30;;;;;;;;;;;;;;;17.90;61.22;99168.66;7406662;19;1559;-38
2023/12/23 11:42:59;;;;;;;;;;;;;;;18.12;60.79;99204.59;7425948;19;1121;-35
2023/12/23 11:45:28;;;;;;;;;;;;;;;18.55;59.47;99188.34;7423674;19;1855;-35
2023/12/23 11:47:59;;;;;;;;;;;;;;;18.65;59.52;99210.41;7423839;19;1323;-40
2023/12/23 11:50:27;;;;;;;;;;;;;;;18.45;59.95;99181.31;7424040;19;1410;-41
2023/12/23 11:52:56;;;;;;;;;;;;;;;18.22;60.62;99169.66;7426306;19;1142;-41
2023/12/23 11:55:24;;;;;;;;;;;;;;;18.06;60.89;99213.28;7425590;19;1342;-41
2023/12/23 11:57:53;;;;;;;;;;;;;;;18.06;61.00;99199.91;7426384;19;1272;-42
2023/12/23 12:00:21;;;;;;;;;;;;;;;18.36;60.58;99211.75;7425806;19;1324;-41
2023/12/23 12:02:50;;;;;;;;;;;;;;;18.64;59.79;99190.81;7424871;19;1321;-45
2023/12/23 12:05:20;;;;;;;;;;;;;;;18.37;59.95;99197.41;7422473;19;1849;-42
2023/12/23 12:07:49;;;;;;;;;;;;;;;18.14;60.52;99234.69;7426179;19;1099;-41
2023/12/23 12:10:18;;;;;;;;;;;;;;;18.01;60.99;99229.03;7425054;19;1703;-40
2023/12/23 12:12:46;;;;;;;;;;;;;;;17.91;61.21;99253.25;7425164;19;1529;-41
2023/12/23 12:15:14;;;;;;;;;;;;;;;17.88;61.39;99278.47;7422559;19;1493;-40
2023/12/23 12:17:43;;;;;;;;;;;;;;;17.81;61.32;99266.75;7397839;19;1485;-41
2023/12/23 12:20:12;;;;;;;;;;;;;;;17.73;61.40;99279.25;7389849;19;1411;-41
2023/12/23 12:22:45;;;;;;;;;;;;;;;17.75;61.52;99306.69;7393497;19;1541;-41
2023/12/23 12:25:14;;;;;;;;;;;;;;;17.67;61.28;99307.47;7393234;19;1851;-34
2023/12/23 12:53:57;;;;;;;;;;;;;;;17.41;62.02;99414.44;7253510;19;3181818;-38
2023/12/23 12:56:26;;;;;;;;;;;;;;;17.44;61.83;99430.16;7420163;19;1424;-37
2023/12/23 12:58:54;;;;;;;;;;;;;;;17.40;61.93;99418.94;7421897;19;1801;-37
2023/12/23 13:01:23;;;;;;;;;;;;;;;17.40;61.93;99432.28;7423214;19;1838;-37
2023/12/23 13:03:51;;;;;;;;;;;;;;;17.46;62.04;99450.38;7423622;19;1751;-37
2023/12/23 13:06:20;;;;;;;;;;;;;;;17.47;61.98;99448.56;7424314;19;1807;-37
2023/12/23 13:08:48;;;;;;;;;;;;;;;17.39;62.01;99457.34;7424871;19;1390;-37
2023/12/23 13:11:19;;;;;;;;;;;;;;;17.28;62.35;99466.44;7424224;19;1414;-47
2023/12/23 13:13:47;;;;;;;;;;;;;;;17.34;62.21;99477.53;7425924;19;1647;-37
2023/12/23 13:16:16;;;;;;;;;;;;;;;17.75;61.37;99459.06;7425150;19;1258;-37
2023/12/23 13:18:44;;;;;;;;;;;;;;;18.61;59.31;99464.25;7425002;19;1637;-37
2023/12/23 13:21:13;;;;;;;;;;;;;;;19.01;58.11;99456.44;7421965;19;1321;-38
2023/12/23 13:23:41;;;;;;;;;;;;;;;18.83;58.67;99486.06;7422232;19;1417;-38
2023/12/23 13:26:09;;;;;;;;;;;;;;;18.87;58.54;99490.91;7424892;19;1606;-37
2023/12/23 13:28:40;;;;;;;;;;;;;;;19.03;58.26;99495.44;7422931;19;1282;-37
2023/12/23 13:31:08;;;;;;;;;;;;;;;18.98;58.25;99495.13;7424935;19;1686;-37
2023/12/23 13:33:34;;;;;;;;;;;;;;;18.94;58.27;99504.50;7424115;19;1400;-37
2023/12/23 13:36:04;;;;;;;;;;;;;;;18.90;58.50;99505.84;7425770;19;1951;-37
2023/12/23 13:38:32;;;;;;;;;;;;;;;18.94;58.59;99509.88;7421267;19;1915;-37
2023/12/23 13:41:00;;;;;;;;;;;;;;;19.15;57.94;99517.41;7421779;19;1794;-37
2023/12/23 13:43:29;;;;;;;;;;;;;;;19.14;57.98;99528.28;7419607;19;1850;-38
2023/12/23 13:46:00;;;;;;;;;;;;;;;19.25;57.93;99534.16;7423634;19;1787;-38
2023/12/23 13:48:28;;;;;;;;;;;;;;;19.31;57.67;99532.66;7423198;19;1492;-37
2023/12/23 13:50:57;;;;;;;;;;;;;;;19.30;57.72;99536.34;7423270;19;1420;-37
2023/12/23 13:53:25;;;;;;;;;;;;;;;19.41;57.39;99521.75;7412697;19;1533;-38
2023/12/23 13:55:53;;;;;;;;;;;;;;;19.42;57.35;99535.00;7393779;19;1447;-37
2023/12/23 13:58:21;;;;;;;;;;;;;;;19.08;57.94;99544.03;7390070;19;1437;-37
2023/12/23 14:00:50;;;;;;;;;;;;;;;18.92;58.43;99556.56;7391334;19;1494;-37
2023/12/23 14:03:21;;;;;;;;;;;;;;;18.80;59.13;99550.66;7389595;19;1858;-37
2023/12/23 14:05:49;;;;;;;;;;;;;;;18.74;59.13;99570.91;7389636;19;1718;-37
2023/12/23 14:08:17;;;;;;;;;;;;;;;18.74;59.23;99568.22;7389294;19;1815;-37
2023/12/23 14:10:46;;;;;;;;;;;;;;;18.71;59.72;99583.78;7389413;19;1481;-38
2023/12/23 14:13:24;;;;;;;;;;;;;;;18.73;59.62;99582.59;7392439;19;1480;-38
2023/12/23 14:15:52;;;;;;;;;;;;;;;18.76;59.91;99581.41;7391830;19;1349;-38
2023/12/23 14:18:40;;;;;;;;;;;;;;;18.71;59.94;99589.13;7378616;19;1361;-37
2023/12/23 14:21:11;;;;;;;;;;;;;;;18.58;60.22;99611.84;7382639;19;1525;-47
2023/12/23 14:23:39;;;;;;;;;;;;;;;18.60;60.29;99598.28;7387892;19;1849;-49
2023/12/23 14:26:08;;;;;;;;;;;;;;;18.63;60.23;99588.09;7390920;19;1843;-46
2023/12/23 14:28:36;;;;;;;;;;;;;;;18.67;60.61;99616.22;7392680;19;1408;-46
2023/12/23 14:31:04;;;;;;;;;;;;;;;18.80;60.52;99606.91;7392486;19;1526;-46
2023/12/23 14:33:33;;;;;;;;;;;;;;;18.88;60.29;99625.72;7389625;19;1535;-46
2023/12/23 14:36:02;;;;;;;;;;;;;;;18.86;60.53;99631.22;7390394;19;1450;-47
2023/12/23 14:38:33;;;;;;;;;;;;;;;18.87;60.45;99621.34;7390933;19;1613;-46
2023/12/23 14:41:01;;;;;;;;;;;;;;;18.87;59.81;99627.53;7393594;19;1472;-47
2023/12/23 14:43:29;;;;;;;;;;;;;;;18.81;60.16;99611.28;7389971;19;1841;-46
2023/12/23 14:45:58;;;;;;;;;;;;;;;18.96;59.86;99628.41;7390682;19;1516;-46
2023/12/23 14:48:26;;;;;;;;;;;;;;;19.00;59.83;99631.56;7387280;19;1472;-47
2023/12/23 14:50:54;;;;;;;;;;;;;;;18.95;59.44;99616.00;7389392;19;1520;-46
2023/12/23 14:53:23;;;;;;;;;;;;;;;18.94;59.74;99619.69;7390539;19;1930;-46
2023/12/23 14:55:54;;;;;;;;;;;;;;;18.86;59.03;99635.72;7390528;19;1559;-47
2023/12/23 14:58:22;;;;;;;;;;;;;;;18.82;58.98;99629.00;7393334;19;1645;-46